createdAt,value
2019-05-06T00:00:33.943Z,0.00
2019-05-06T00:01:33.761Z,0.00
2019-05-06T00:02:33.898Z,0.00
2019-05-06T00:03:34.184Z,0.00
2019-05-06T00:04:33.766Z,0.00
2019-05-06T00:05:34.004Z,0.00
2019-05-06T00:06:34.385Z,0.00
2019-05-06T00:07:33.878Z,0.00
2019-05-06T00:08:34.227Z,0.00
2019-05-06T00:09:31.990Z,0.00
2019-05-06T00:10:33.959Z,0.00
2019-05-06T00:11:34.409Z,0.00
2019-05-06T00:12:33.539Z,0.00
2019-05-06T00:13:34.189Z,0.00
2019-05-06T00:14:33.838Z,0.00
2019-05-06T00:15:34.089Z,0.00
2019-05-06T00:16:34.416Z,0.00
2019-05-06T00:17:32.108Z,0.00
2019-05-06T00:18:33.952Z,0.00
2019-05-06T00:19:34.004Z,0.00
2019-05-06T00:20:34.555Z,0.00
2019-05-06T00:21:32.166Z,0.00
2019-05-06T00:22:34.193Z,0.00
2019-05-06T00:23:32.197Z,0.00
2019-05-06T00:24:34.246Z,0.00
2019-05-06T00:25:34.722Z,0.00
2019-05-06T00:26:34.011Z,0.00
2019-05-06T00:27:34.123Z,0.00
2019-05-06T00:28:34.017Z,0.00
2019-05-06T00:29:32.355Z,0.00
2019-05-06T00:30:34.440Z,0.00
2019-05-06T00:31:34.376Z,0.00
2019-05-06T00:32:34.665Z,0.00
2019-05-06T00:33:33.999Z,0.00
2019-05-06T00:34:33.974Z,0.00
2019-05-06T00:35:34.146Z,0.00
2019-05-06T00:36:34.309Z,0.00
2019-05-06T00:37:32.424Z,0.00
2019-05-06T00:38:33.995Z,0.00
2019-05-06T00:39:33.678Z,0.00
2019-05-06T00:40:34.025Z,0.00
2019-05-06T00:41:35.860Z,0.00
2019-05-06T00:42:34.402Z,0.00
2019-05-06T00:43:34.355Z,0.00
2019-05-06T00:44:34.525Z,0.00
2019-05-06T00:45:34.126Z,0.00
2019-05-06T00:46:34.259Z,0.00
2019-05-06T00:47:34.005Z,0.00
2019-05-06T00:48:34.199Z,0.00
2019-05-06T00:49:34.290Z,0.00
2019-05-06T00:50:34.719Z,0.00
2019-05-06T00:51:33.821Z,0.00
2019-05-06T00:52:33.949Z,0.00
2019-05-06T00:53:34.610Z,0.00
2019-05-06T00:54:34.057Z,0.00
2019-05-06T00:55:33.781Z,0.00
2019-05-06T00:56:34.035Z,0.00
2019-05-06T00:57:34.032Z,0.00
2019-05-06T00:58:34.571Z,0.00
2019-05-06T00:59:34.430Z,0.00
2019-05-06T01:00:33.666Z,0.00
2019-05-06T01:01:34.438Z,0.00
2019-05-06T01:02:34.245Z,0.00
2019-05-06T01:03:34.495Z,0.00
2019-05-06T01:04:33.847Z,0.00
2019-05-06T01:05:33.741Z,0.00
2019-05-06T01:06:34.444Z,0.00
2019-05-06T01:07:34.486Z,0.00
2019-05-06T01:08:34.675Z,0.00
2019-05-06T01:09:34.368Z,0.00
2019-05-06T01:10:34.367Z,0.00
2019-05-06T01:11:34.593Z,0.00
2019-05-06T01:12:34.638Z,0.00
2019-05-06T01:13:34.953Z,0.00
2019-05-06T01:14:35.062Z,0.00
2019-05-06T01:15:34.347Z,0.00
2019-05-06T01:16:34.536Z,0.00
2019-05-06T01:17:33.892Z,0.00
2019-05-06T01:18:34.092Z,0.00
2019-05-06T01:19:34.180Z,0.00
2019-05-06T01:20:33.923Z,0.00
2019-05-06T01:21:34.187Z,0.00
2019-05-06T01:22:34.208Z,0.00
2019-05-06T01:23:34.195Z,0.00
2019-05-06T01:24:34.487Z,0.00
2019-05-06T01:25:34.586Z,0.00
2019-05-06T01:26:33.767Z,0.00
2019-05-06T01:27:33.754Z,0.00
2019-05-06T01:28:34.095Z,0.00
2019-05-06T01:29:34.812Z,0.00
2019-05-06T01:30:33.670Z,0.00
2019-05-06T01:31:42.246Z,0.00
2019-05-06T01:32:34.523Z,0.00
2019-05-06T01:33:34.971Z,0.00
2019-05-06T01:34:33.906Z,0.00
2019-05-06T01:35:35.066Z,0.00
2019-05-06T01:36:34.370Z,0.00
2019-05-06T01:37:34.750Z,0.00
2019-05-06T01:38:34.018Z,0.00
2019-05-06T01:39:34.157Z,0.00
2019-05-06T01:40:34.597Z,0.00
2019-05-06T01:41:33.857Z,0.00
2019-05-06T01:42:34.432Z,0.00
2019-05-06T01:43:34.689Z,0.00
2019-05-06T01:44:33.921Z,0.00
2019-05-06T01:45:34.915Z,0.00
2019-05-06T01:46:33.988Z,0.00
2019-05-06T01:47:34.580Z,0.00
2019-05-06T01:48:33.644Z,0.00
2019-05-06T01:49:33.988Z,0.00
2019-05-06T01:50:34.441Z,0.00
2019-05-06T01:51:34.871Z,0.00
2019-05-06T01:52:34.467Z,0.00
2019-05-06T01:53:33.897Z,0.00
2019-05-06T01:54:34.418Z,0.00
2019-05-06T01:55:34.329Z,0.00
2019-05-06T01:56:33.823Z,0.00
2019-05-06T01:57:33.843Z,0.00
2019-05-06T01:58:33.643Z,0.00
2019-05-06T01:59:34.040Z,0.00
2019-05-06T02:00:34.426Z,0.00
2019-05-06T02:01:34.085Z,0.00
2019-05-06T02:02:34.357Z,0.00
2019-05-06T02:03:34.718Z,0.00
2019-05-06T02:04:33.880Z,0.00
2019-05-06T02:05:33.812Z,0.00
2019-05-06T02:06:34.293Z,0.00
2019-05-06T02:07:34.936Z,0.00
2019-05-06T02:08:33.799Z,0.00
2019-05-06T02:09:34.318Z,0.00
2019-05-06T02:10:34.938Z,0.00
2019-05-06T02:11:33.938Z,0.00
2019-05-06T02:12:34.202Z,0.00
2019-05-06T02:13:34.886Z,0.00
2019-05-06T02:14:34.256Z,0.00
2019-05-06T02:15:34.609Z,0.00
2019-05-06T02:16:34.336Z,0.00
2019-05-06T02:17:34.503Z,0.00
2019-05-06T02:18:34.029Z,0.00
2019-05-06T02:19:34.792Z,0.00
2019-05-06T02:20:34.069Z,0.00
2019-05-06T02:21:33.982Z,0.00
2019-05-06T02:22:34.611Z,0.00
2019-05-06T02:23:34.014Z,0.00
2019-05-06T02:24:34.029Z,0.00
2019-05-06T02:25:34.271Z,0.00
2019-05-06T02:26:34.288Z,0.00
2019-05-06T02:27:34.197Z,0.00
2019-05-06T02:28:34.476Z,0.00
2019-05-06T02:29:34.207Z,0.00
2019-05-06T02:30:36.538Z,0.00
2019-05-06T02:31:35.394Z,0.00
2019-05-06T02:32:35.953Z,0.00
2019-05-06T02:33:35.593Z,0.00
2019-05-06T02:34:36.385Z,0.00
2019-05-06T02:35:34.802Z,0.00
2019-05-06T02:36:34.478Z,0.00
2019-05-06T02:37:34.951Z,0.00
2019-05-06T02:38:45.139Z,0.00
2019-05-06T02:39:34.345Z,0.00
2019-05-06T02:40:34.262Z,0.00
2019-05-06T02:41:34.282Z,0.00
2019-05-06T02:42:34.291Z,0.00
2019-05-06T02:43:34.704Z,0.00
2019-05-06T02:44:34.321Z,0.00
2019-05-06T02:45:34.335Z,0.00
2019-05-06T02:46:34.348Z,0.00
2019-05-06T02:47:34.505Z,0.00
2019-05-06T02:48:34.380Z,4.00
2019-05-06T02:49:34.391Z,4.00
2019-05-06T02:50:34.406Z,0.00
2019-05-06T02:51:34.421Z,0.00
2019-05-06T02:52:34.438Z,4.00
2019-05-06T02:53:34.450Z,4.00
2019-05-06T02:54:34.762Z,4.00
2019-05-06T02:55:36.258Z,4.00
2019-05-06T02:56:34.491Z,8.00
2019-05-06T02:57:34.511Z,4.00
2019-05-06T02:58:34.530Z,8.00
2019-05-06T02:59:34.542Z,8.00
2019-05-06T03:00:34.548Z,8.00
2019-05-06T03:01:34.563Z,12.00
2019-05-06T03:02:43.080Z,12.00
2019-05-06T03:03:34.593Z,16.00
2019-05-06T03:04:34.606Z,16.00
2019-05-06T03:05:34.618Z,20.00
2019-05-06T03:06:34.632Z,20.00
2019-05-06T03:07:37.640Z,28.00
2019-05-06T03:08:34.668Z,28.00
2019-05-06T03:09:34.682Z,32.00
2019-05-06T03:10:34.690Z,36.00
2019-05-06T03:11:34.705Z,40.00
2019-05-06T03:12:34.717Z,48.00
2019-05-06T03:13:34.731Z,52.00
2019-05-06T03:14:34.943Z,60.00
2019-05-06T03:15:34.764Z,64.00
2019-05-06T03:16:34.772Z,72.00
2019-05-06T03:17:34.798Z,84.00
2019-05-06T03:18:34.799Z,92.00
2019-05-06T03:19:34.817Z,100.00
2019-05-06T03:20:35.908Z,112.00
2019-05-06T03:21:37.204Z,128.00
2019-05-06T03:22:34.913Z,140.00
2019-05-06T03:23:35.183Z,156.00
2019-05-06T03:24:34.883Z,168.00
2019-05-06T03:25:34.896Z,184.00
2019-05-06T03:26:34.910Z,200.00
2019-05-06T03:27:34.924Z,220.00
2019-05-06T03:28:34.939Z,240.00
2019-05-06T03:29:34.950Z,260.00
2019-05-06T03:30:36.105Z,284.00
2019-05-06T03:31:36.480Z,304.00
2019-05-06T03:32:38.170Z,328.00
2019-05-06T03:33:55.356Z,352.00
2019-05-06T03:34:58.666Z,380.00
2019-05-06T03:35:49.969Z,408.00
2019-05-06T03:36:40.700Z,436.00
2019-05-06T03:37:35.060Z,464.00
2019-05-06T03:38:35.078Z,500.00
2019-05-06T03:39:35.087Z,532.00
2019-05-06T03:40:37.114Z,564.00
2019-05-06T03:41:35.116Z,596.00
2019-05-06T03:42:35.129Z,632.00
2019-05-06T03:43:35.141Z,668.00
2019-05-06T03:44:35.157Z,704.00
2019-05-06T03:45:35.168Z,740.00
2019-05-06T03:46:35.183Z,780.00
2019-05-06T03:47:35.195Z,820.00
2019-05-06T03:48:35.214Z,856.00
2019-05-06T03:49:35.224Z,900.00
2019-05-06T03:50:35.236Z,936.00
2019-05-06T03:51:35.252Z,980.00
2019-05-06T03:52:35.270Z,1020.00
2019-05-06T03:53:35.276Z,1060.00
2019-05-06T03:54:35.294Z,1104.00
2019-05-06T03:55:35.307Z,1148.00
2019-05-06T03:56:35.322Z,1192.00
2019-05-06T03:57:36.204Z,1236.00
2019-05-06T03:58:35.355Z,1280.00
2019-05-06T03:59:35.360Z,1324.00
2019-05-06T04:00:35.370Z,1364.00
2019-05-06T04:01:35.385Z,1408.00
2019-05-06T04:02:39.389Z,1452.00
2019-05-06T04:03:47.003Z,1504.00
2019-05-06T04:04:35.426Z,1548.00
2019-05-06T04:05:35.438Z,1588.00
2019-05-06T04:06:35.452Z,1636.00
2019-05-06T04:07:35.473Z,1688.00
2019-05-06T04:08:35.493Z,1728.00
2019-05-06T04:09:36.769Z,1772.00
2019-05-06T04:10:36.941Z,1812.00
2019-05-06T04:11:36.476Z,1860.00
2019-05-06T04:12:35.537Z,1908.00
2019-05-06T04:13:35.546Z,1948.00
2019-05-06T04:14:35.566Z,2000.00
2019-05-06T04:15:35.574Z,2040.00
2019-05-06T04:16:35.589Z,2072.00
2019-05-06T04:17:35.600Z,2108.00
2019-05-06T04:18:35.613Z,2152.00
2019-05-06T04:19:35.626Z,2192.00
2019-05-06T04:20:35.640Z,2228.00
2019-05-06T04:21:35.653Z,2272.00
2019-05-06T04:22:35.668Z,2308.00
2019-05-06T04:23:35.683Z,2340.00
2019-05-06T04:24:35.696Z,2372.00
2019-05-06T04:25:35.721Z,2416.00
2019-05-06T04:26:35.721Z,2464.00
2019-05-06T04:27:35.734Z,2500.00
2019-05-06T04:28:35.747Z,2544.00
2019-05-06T04:29:35.816Z,2580.00
2019-05-06T04:30:35.776Z,2616.00
2019-05-06T04:31:35.791Z,2652.00
2019-05-06T04:32:35.803Z,2692.00
2019-05-06T04:33:35.815Z,2732.00
2019-05-06T04:34:35.831Z,2768.00
2019-05-06T04:35:35.841Z,2804.00
2019-05-06T04:36:35.860Z,2844.00
2019-05-06T04:37:35.869Z,2884.00
2019-05-06T04:38:35.882Z,2920.00
2019-05-06T04:39:35.906Z,2952.00
2019-05-06T04:40:35.910Z,2996.00
2019-05-06T04:41:35.932Z,3036.00
2019-05-06T04:42:35.937Z,3060.00
2019-05-06T04:43:35.962Z,3100.00
2019-05-06T04:44:36.042Z,3136.00
2019-05-06T04:45:36.029Z,3168.00
2019-05-06T04:46:36.035Z,3196.00
2019-05-06T04:47:36.044Z,3232.00
2019-05-06T04:48:36.049Z,3276.00
2019-05-06T04:49:36.102Z,3320.00
2019-05-06T04:50:36.090Z,3364.00
2019-05-06T04:51:37.000Z,3416.00
2019-05-06T04:52:36.090Z,3464.00
2019-05-06T04:53:36.093Z,3528.00
2019-05-06T04:54:36.097Z,3588.00
2019-05-06T04:55:36.119Z,3596.00
2019-05-06T04:56:36.123Z,3624.00
2019-05-06T04:57:36.142Z,3648.00
2019-05-06T04:58:36.152Z,3716.00
2019-05-06T04:59:36.167Z,3876.00
2019-05-06T05:00:36.208Z,3920.00
2019-05-06T05:01:36.194Z,3828.00
2019-05-06T05:02:36.211Z,3804.00
2019-05-06T05:03:36.222Z,3844.00
2019-05-06T05:04:36.984Z,3880.00
2019-05-06T05:05:36.250Z,3912.00
2019-05-06T05:06:36.263Z,3952.00
2019-05-06T05:07:36.280Z,3980.00
2019-05-06T05:08:36.297Z,4008.00
2019-05-06T05:09:36.312Z,4040.00
2019-05-06T05:10:36.317Z,4076.00
2019-05-06T05:11:36.333Z,4100.00
2019-05-06T05:12:36.347Z,4124.00
2019-05-06T05:13:36.360Z,4128.00
2019-05-06T05:14:36.375Z,4136.00
2019-05-06T05:15:36.390Z,4152.00
2019-05-06T05:16:36.400Z,4172.00
2019-05-06T05:17:36.422Z,4192.00
2019-05-06T05:18:36.432Z,4228.00
2019-05-06T05:19:36.453Z,4244.00
2019-05-06T05:20:40.766Z,4272.00
2019-05-06T05:21:36.471Z,4292.00
2019-05-06T05:22:36.512Z,4316.00
2019-05-06T05:23:36.500Z,4352.00
2019-05-06T05:24:36.514Z,4400.00
2019-05-06T05:25:36.529Z,4460.00
2019-05-06T05:26:36.544Z,4524.00
2019-05-06T05:27:36.563Z,4560.00
2019-05-06T05:28:36.570Z,4596.00
2019-05-06T05:29:36.583Z,4668.00
2019-05-06T05:30:36.600Z,4848.00
2019-05-06T05:31:36.613Z,4968.00
2019-05-06T05:32:36.627Z,5224.00
2019-05-06T05:33:36.640Z,5068.00
2019-05-06T05:34:40.633Z,4896.00
2019-05-06T05:35:36.670Z,5208.00
2019-05-06T05:36:36.687Z,4920.00
2019-05-06T05:37:36.700Z,4936.00
2019-05-06T05:38:36.712Z,5432.00
2019-05-06T05:39:36.732Z,5224.00
2019-05-06T05:40:36.742Z,5236.00
2019-05-06T05:41:36.755Z,5204.00
2019-05-06T05:42:36.770Z,5372.00
2019-05-06T05:43:39.396Z,5744.00
2019-05-06T05:44:36.806Z,5448.00
2019-05-06T05:45:36.812Z,5572.00
2019-05-06T05:46:36.830Z,5564.00
2019-05-06T05:47:36.843Z,5452.00
2019-05-06T05:48:36.862Z,5432.00
2019-05-06T05:49:36.873Z,5900.00
2019-05-06T05:50:36.887Z,6588.00
2019-05-06T05:51:36.903Z,6764.00
2019-05-06T05:52:36.916Z,5984.00
2019-05-06T05:53:36.931Z,5532.00
2019-05-06T05:54:36.947Z,5788.00
2019-05-06T05:55:36.960Z,6128.00
2019-05-06T05:56:36.976Z,6940.00
2019-05-06T05:57:36.992Z,8168.00
2019-05-06T05:58:37.007Z,7804.00
2019-05-06T05:59:37.021Z,7684.00
2019-05-06T06:00:37.036Z,7312.00
2019-05-06T06:01:37.051Z,6168.00
2019-05-06T06:02:37.065Z,5960.00
2019-05-06T06:03:37.081Z,6548.00
2019-05-06T06:04:50.742Z,6532.00
2019-05-06T06:05:37.109Z,6608.00
2019-05-06T06:06:37.124Z,6708.00
2019-05-06T06:07:37.142Z,7436.00
2019-05-06T06:08:37.158Z,6940.00
2019-05-06T06:09:37.170Z,6116.00
2019-05-06T06:10:37.188Z,6300.00
2019-05-06T06:11:37.200Z,6256.00
2019-05-06T06:12:37.216Z,6492.00
2019-05-06T06:13:37.231Z,7876.00
2019-05-06T06:14:37.247Z,16108.00
2019-05-06T06:15:37.263Z,24768.00
2019-05-06T06:16:37.280Z,27552.00
2019-05-06T06:17:37.292Z,17184.00
2019-05-06T06:18:37.310Z,28288.00
2019-05-06T06:19:37.326Z,38720.00
2019-05-06T06:20:37.341Z,34880.00
2019-05-06T06:21:37.359Z,42432.00
2019-05-06T06:22:37.373Z,32800.00
2019-05-06T06:23:37.390Z,27392.00
2019-05-06T06:24:37.405Z,43264.00
2019-05-06T06:25:37.424Z,42720.00
2019-05-06T06:26:37.437Z,42752.00
2019-05-06T06:27:37.456Z,44704.00
2019-05-06T06:28:37.474Z,47328.00
2019-05-06T06:29:37.491Z,49632.00
2019-05-06T06:30:37.510Z,49440.00
2019-05-06T06:31:37.525Z,47744.00
2019-05-06T06:32:37.545Z,50144.00
2019-05-06T06:33:37.560Z,49312.00
2019-05-06T06:34:37.580Z,49280.00
2019-05-06T06:35:37.599Z,47840.00
2019-05-06T06:36:37.619Z,45408.00
2019-05-06T06:37:37.638Z,43136.00
2019-05-06T06:38:37.660Z,42016.00
2019-05-06T06:39:37.676Z,44448.00
2019-05-06T06:40:37.694Z,40992.00
2019-05-06T06:41:37.717Z,37696.00
2019-05-06T06:42:37.735Z,42816.00
2019-05-06T06:43:37.753Z,39520.00
2019-05-06T06:44:37.774Z,32352.00
2019-05-06T06:45:37.806Z,33088.00
2019-05-06T06:46:37.882Z,32768.00
2019-05-06T06:47:37.891Z,32608.00
2019-05-06T06:48:37.883Z,32960.00
2019-05-06T06:49:37.954Z,36192.00
2019-05-06T06:50:37.943Z,37440.00
2019-05-06T06:51:37.940Z,38016.00
2019-05-06T06:52:37.943Z,41856.00
2019-05-06T06:53:37.955Z,44864.00
2019-05-06T06:54:37.977Z,35136.00
2019-05-06T06:55:37.999Z,48352.00
2019-05-06T06:56:38.019Z,42400.00
2019-05-06T06:57:38.044Z,49984.00
2019-05-06T06:58:38.061Z,48448.00
2019-05-06T06:59:38.084Z,45184.00
2019-05-06T07:00:38.107Z,53088.00
2019-05-06T07:01:38.127Z,52928.00
2019-05-06T07:02:38.154Z,45888.00
2019-05-06T07:03:38.171Z,27488.00
2019-05-06T07:04:38.192Z,55136.00
2019-05-06T07:05:38.212Z,39584.00
2019-05-06T07:06:38.233Z,20672.00
2019-05-06T07:07:43.464Z,32288.00
2019-05-06T07:08:38.278Z,22240.00
2019-05-06T07:09:38.300Z,12324.00
2019-05-06T07:10:38.320Z,15584.00
2019-05-06T07:11:38.343Z,14744.00
2019-05-06T07:12:38.367Z,57984.00
2019-05-06T07:13:38.386Z,18752.00
2019-05-06T07:14:38.405Z,7184.00
2019-05-06T07:15:38.430Z,8340.00
2019-05-06T07:16:38.451Z,62720.00
2019-05-06T07:17:38.470Z,65088.00
2019-05-06T07:18:38.494Z,60992.00
2019-05-06T07:19:38.515Z,47872.00
2019-05-06T07:20:38.537Z,58560.00
2019-05-06T07:21:38.922Z,65920.00
2019-05-06T07:22:38.580Z,55200.00
2019-05-06T07:23:38.601Z,70816.00
2019-05-06T07:24:38.625Z,24384.00
2019-05-06T07:25:38.647Z,48800.00
2019-05-06T07:26:38.666Z,11572.00
2019-05-06T07:27:38.692Z,11804.00
2019-05-06T07:28:38.714Z,62720.00
2019-05-06T07:29:38.737Z,65600.00
2019-05-06T07:30:38.757Z,65312.00
2019-05-06T07:31:38.779Z,66496.00
2019-05-06T07:32:38.800Z,68768.00
2019-05-06T07:33:38.827Z,69088.00
2019-05-06T07:34:38.846Z,23456.00
2019-05-06T07:35:41.128Z,68992.00
2019-05-06T07:36:38.895Z,15596.00
2019-05-06T07:37:38.912Z,10112.00
2019-05-06T07:38:38.936Z,8888.00
2019-05-06T07:39:38.962Z,8524.00
2019-05-06T07:40:38.983Z,9236.00
2019-05-06T07:41:42.275Z,12712.00
2019-05-06T07:42:39.027Z,19520.00
2019-05-06T07:43:39.051Z,62528.00
2019-05-06T07:44:39.070Z,51008.00
2019-05-06T07:45:39.095Z,69856.00
2019-05-06T07:46:39.119Z,16948.00
2019-05-06T07:47:39.140Z,13980.00
2019-05-06T07:48:39.191Z,54016.00
2019-05-06T07:49:39.182Z,22784.00
2019-05-06T07:50:39.206Z,51168.00
2019-05-06T07:51:39.227Z,65152.00
2019-05-06T07:52:39.250Z,27360.00
2019-05-06T07:53:39.272Z,41792.00
2019-05-06T07:54:39.295Z,15068.00
2019-05-06T07:55:39.329Z,15904.00
2019-05-06T07:56:39.342Z,20608.00
2019-05-06T07:57:39.362Z,66976.00
2019-05-06T07:58:39.386Z,22848.00
2019-05-06T07:59:39.410Z,49440.00
2019-05-06T08:00:39.431Z,75104.00
2019-05-06T08:01:39.453Z,12852.00
2019-05-06T08:02:39.475Z,12052.00
2019-05-06T08:03:39.499Z,15768.00
2019-05-06T08:04:39.523Z,30848.00
2019-05-06T08:05:54.255Z,75648.00
2019-05-06T08:06:39.566Z,39424.00
2019-05-06T08:07:39.589Z,58336.00
2019-05-06T08:08:39.610Z,72800.00
2019-05-06T08:09:42.107Z,71072.00
2019-05-06T08:10:39.669Z,69536.00
2019-05-06T08:11:39.681Z,62688.00
2019-05-06T08:12:39.776Z,28640.00
2019-05-06T08:13:39.774Z,22944.00
2019-05-06T08:14:39.791Z,22752.00
2019-05-06T08:15:41.988Z,23648.00
2019-05-06T08:16:42.450Z,22048.00
2019-05-06T08:17:42.109Z,18848.00
2019-05-06T08:18:42.358Z,12588.00
2019-05-06T08:19:42.180Z,10304.00
2019-05-06T08:20:39.889Z,9012.00
2019-05-06T08:21:39.909Z,8680.00
2019-05-06T08:22:42.156Z,8220.00
2019-05-06T08:23:39.954Z,8384.00
2019-05-06T08:24:41.837Z,8424.00
2019-05-06T08:25:42.322Z,9368.00
2019-05-06T08:26:40.017Z,9116.00
2019-05-06T08:27:42.391Z,10720.00
2019-05-06T08:28:41.672Z,11116.00
2019-05-06T08:29:42.326Z,11084.00
2019-05-06T08:30:40.200Z,11228.00
2019-05-06T08:31:40.128Z,12232.00
2019-05-06T08:32:42.360Z,15732.00
2019-05-06T08:33:40.167Z,21728.00
2019-05-06T08:34:42.034Z,26208.00
2019-05-06T08:35:42.360Z,27936.00
2019-05-06T08:36:42.452Z,25536.00
2019-05-06T08:37:42.534Z,20256.00
2019-05-06T08:38:42.130Z,14936.00
2019-05-06T08:39:43.786Z,12600.00
2019-05-06T08:40:40.309Z,12480.00
2019-05-06T08:41:42.204Z,14584.00
2019-05-06T08:42:42.379Z,18464.00
2019-05-06T08:43:42.155Z,22752.00
2019-05-06T08:44:42.563Z,26720.00
2019-05-06T08:45:42.077Z,29376.00
2019-05-06T08:46:42.830Z,26112.00
2019-05-06T08:47:42.306Z,22272.00
2019-05-06T08:48:42.424Z,16708.00
2019-05-06T08:49:42.177Z,14116.00
2019-05-06T08:50:42.488Z,11832.00
2019-05-06T08:51:42.386Z,10456.00
2019-05-06T08:52:42.454Z,9940.00
2019-05-06T08:53:42.324Z,9944.00
2019-05-06T08:54:40.611Z,11164.00
2019-05-06T08:55:42.075Z,13644.00
2019-05-06T08:56:42.543Z,15864.00
2019-05-06T08:57:42.060Z,17240.00
2019-05-06T08:58:42.993Z,16944.00
2019-05-06T08:59:42.389Z,18496.00
2019-05-06T09:00:42.778Z,19296.00
2019-05-06T09:01:42.385Z,17028.00
2019-05-06T09:02:42.496Z,18592.00
2019-05-06T09:03:42.251Z,24096.00
2019-05-06T09:04:42.674Z,27840.00
2019-05-06T09:05:42.298Z,25440.00
2019-05-06T09:06:42.935Z,19712.00
2019-05-06T09:07:42.886Z,15836.00
2019-05-06T09:08:42.834Z,13888.00
2019-05-06T09:09:42.125Z,12744.00
2019-05-06T09:10:42.810Z,12648.00
2019-05-06T09:11:42.936Z,13848.00
2019-05-06T09:12:42.497Z,15316.00
2019-05-06T09:13:42.753Z,20608.00
2019-05-06T09:14:43.003Z,24928.00
2019-05-06T09:15:42.749Z,26464.00
2019-05-06T09:16:43.401Z,20192.00
2019-05-06T09:17:42.058Z,15860.00
2019-05-06T09:18:42.542Z,14624.00
2019-05-06T09:19:42.706Z,16404.00
2019-05-06T09:20:42.996Z,20192.00
2019-05-06T09:21:43.534Z,17664.00
2019-05-06T09:22:42.926Z,16420.00
2019-05-06T09:23:42.354Z,15268.00
2019-05-06T09:24:42.674Z,15828.00
2019-05-06T09:25:42.436Z,16976.00
2019-05-06T09:26:43.124Z,17984.00
2019-05-06T09:27:42.141Z,18784.00
2019-05-06T09:28:42.718Z,20384.00
2019-05-06T09:29:42.977Z,21888.00
2019-05-06T09:30:43.162Z,19584.00
2019-05-06T09:31:42.750Z,19360.00
2019-05-06T09:32:42.899Z,19840.00
2019-05-06T09:33:42.499Z,20928.00
2019-05-06T09:34:43.071Z,22944.00
2019-05-06T09:35:42.167Z,25824.00
2019-05-06T09:36:51.360Z,19456.00
2019-05-06T09:37:42.909Z,14380.00
2019-05-06T09:38:42.427Z,13084.00
2019-05-06T09:39:42.988Z,13920.00
2019-05-06T09:40:43.277Z,15924.00
2019-05-06T09:41:47.375Z,17984.00
2019-05-06T09:42:42.566Z,19296.00
2019-05-06T09:43:43.309Z,20512.00
2019-05-06T09:44:42.746Z,21536.00
2019-05-06T09:45:42.561Z,22496.00
2019-05-06T09:46:42.655Z,23296.00
2019-05-06T09:47:42.479Z,23808.00
2019-05-06T09:48:42.447Z,24480.00
2019-05-06T09:49:42.548Z,25472.00
2019-05-06T09:50:45.387Z,33120.00
2019-05-06T09:51:42.466Z,27616.00
2019-05-06T09:52:42.675Z,27744.00
2019-05-06T09:53:43.215Z,27648.00
2019-05-06T09:54:42.720Z,82208.00
2019-05-06T09:55:43.011Z,54464.00
2019-05-06T09:56:42.723Z,34848.00
2019-05-06T09:57:42.641Z,37696.00
2019-05-06T09:58:42.938Z,78080.00
2019-05-06T09:59:42.190Z,19904.00
2019-05-06T10:00:42.873Z,63776.00
2019-05-06T10:01:43.723Z,49344.00
2019-05-06T10:02:42.940Z,25856.00
2019-05-06T10:03:42.686Z,29536.00
2019-05-06T10:04:42.831Z,51424.00
2019-05-06T10:05:42.496Z,73248.00
2019-05-06T10:06:55.722Z,22464.00
2019-05-06T10:07:42.124Z,20672.00
2019-05-06T10:08:42.149Z,21056.00
2019-05-06T10:09:43.472Z,19648.00
2019-05-06T10:10:53.785Z,20416.00
2019-05-06T10:11:42.312Z,21984.00
2019-05-06T10:12:42.243Z,24288.00
2019-05-06T10:13:43.134Z,28704.00
2019-05-06T10:14:43.396Z,39264.00
2019-05-06T10:15:42.907Z,31968.00
2019-05-06T10:16:42.974Z,27488.00
2019-05-06T10:17:42.895Z,24032.00
2019-05-06T10:18:42.380Z,20320.00
2019-05-06T10:19:42.973Z,17376.00
2019-05-06T10:20:42.779Z,14904.00
2019-05-06T10:21:42.745Z,12580.00
2019-05-06T10:22:43.050Z,10572.00
2019-05-06T10:23:42.565Z,9104.00
2019-05-06T10:24:43.093Z,8028.00
2019-05-06T10:25:43.661Z,7344.00
2019-05-06T10:26:43.191Z,7340.00
2019-05-06T10:27:42.587Z,7880.00
2019-05-06T10:28:42.606Z,8728.00
2019-05-06T10:29:43.214Z,9552.00
2019-05-06T10:30:42.649Z,10652.00
2019-05-06T10:31:43.190Z,12084.00
2019-05-06T10:32:42.778Z,13664.00
2019-05-06T10:33:42.758Z,15168.00
2019-05-06T10:34:43.521Z,16804.00
2019-05-06T10:35:42.936Z,18688.00
2019-05-06T10:36:42.831Z,20352.00
2019-05-06T10:37:42.798Z,21792.00
2019-05-06T10:38:42.822Z,23168.00
2019-05-06T10:39:42.839Z,24352.00
2019-05-06T10:40:57.313Z,25024.00
2019-05-06T10:41:42.883Z,26816.00
2019-05-06T10:42:43.093Z,27328.00
2019-05-06T10:43:43.173Z,60160.00
2019-05-06T10:44:43.040Z,53664.00
2019-05-06T10:45:42.967Z,33120.00
2019-05-06T10:46:43.141Z,78688.00
2019-05-06T10:47:43.009Z,52544.00
2019-05-06T10:48:43.035Z,68704.00
2019-05-06T10:49:43.058Z,35072.00
2019-05-06T10:50:43.076Z,26112.00
2019-05-06T10:51:43.108Z,21952.00
2019-05-06T10:52:43.127Z,17440.00
2019-05-06T10:53:43.144Z,13060.00
2019-05-06T10:54:43.171Z,10076.00
2019-05-06T10:55:43.190Z,8804.00
2019-05-06T10:56:53.010Z,8980.00
2019-05-06T10:57:43.243Z,9884.00
2019-05-06T10:58:44.034Z,11144.00
2019-05-06T10:59:43.282Z,12760.00
2019-05-06T11:00:43.315Z,14940.00
2019-05-06T11:01:43.325Z,17472.00
2019-05-06T11:02:43.359Z,19840.00
2019-05-06T11:03:43.404Z,22016.00
2019-05-06T11:04:43.396Z,23616.00
2019-05-06T11:05:43.475Z,24160.00
2019-05-06T11:06:43.441Z,24128.00
2019-05-06T11:07:43.462Z,25408.00
2019-05-06T11:08:43.558Z,22272.00
2019-05-06T11:09:43.553Z,94976.00
2019-05-06T11:10:45.443Z,87264.00
2019-05-06T11:11:43.581Z,88000.00
2019-05-06T11:12:43.623Z,91264.00
2019-05-06T11:13:43.624Z,92832.00
2019-05-06T11:14:43.629Z,91840.00
2019-05-06T11:15:43.667Z,97568.00
2019-05-06T11:16:43.663Z,94944.00
2019-05-06T11:17:43.782Z,27872.00
2019-05-06T11:18:43.709Z,56384.00
2019-05-06T11:19:43.738Z,25536.00
2019-05-06T11:20:44.131Z,21152.00
2019-05-06T11:21:45.217Z,18848.00
2019-05-06T11:22:43.875Z,17184.00
2019-05-06T11:23:43.838Z,15224.00
2019-05-06T11:24:43.861Z,13856.00
2019-05-06T11:25:43.906Z,12780.00
2019-05-06T11:26:43.913Z,11844.00
2019-05-06T11:27:45.063Z,11352.00
2019-05-06T11:28:43.964Z,11588.00
2019-05-06T11:29:43.992Z,12508.00
2019-05-06T11:30:44.017Z,14540.00
2019-05-06T11:31:44.039Z,17920.00
2019-05-06T11:32:44.525Z,22208.00
2019-05-06T11:33:44.085Z,26368.00
2019-05-06T11:34:44.117Z,30784.00
2019-05-06T11:35:44.134Z,60352.00
2019-05-06T11:36:44.155Z,35136.00
2019-05-06T11:37:50.169Z,36448.00
2019-05-06T11:38:44.226Z,38528.00
2019-05-06T11:39:44.225Z,32192.00
2019-05-06T11:40:44.251Z,115968.00
2019-05-06T11:41:59.186Z,24704.00
2019-05-06T11:42:44.300Z,22432.00
2019-05-06T11:43:44.319Z,24320.00
2019-05-06T11:44:44.353Z,23840.00
2019-05-06T11:45:44.364Z,93824.00
2019-05-06T11:46:44.394Z,87232.00
2019-05-06T11:47:44.412Z,91552.00
2019-05-06T11:48:44.449Z,32384.00
2019-05-06T11:49:44.460Z,90144.00
2019-05-06T11:50:44.486Z,89792.00
2019-05-06T11:51:44.512Z,90688.00
2019-05-06T11:52:44.537Z,94112.00
2019-05-06T11:53:44.560Z,94848.00
2019-05-06T11:54:44.587Z,95456.00
2019-05-06T11:55:44.627Z,92160.00
2019-05-06T11:56:50.871Z,89728.00
2019-05-06T11:57:44.811Z,91456.00
2019-05-06T11:58:44.700Z,93440.00
2019-05-06T11:59:44.727Z,96224.00
2019-05-06T12:00:44.756Z,102976.00
2019-05-06T12:01:44.781Z,23456.00
2019-05-06T12:02:48.425Z,21792.00
2019-05-06T12:03:44.837Z,20992.00
2019-05-06T12:04:44.868Z,20608.00
2019-05-06T12:05:44.893Z,21120.00
2019-05-06T12:06:44.925Z,21280.00
2019-05-06T12:08:00.404Z,21312.00
2019-05-06T12:08:44.982Z,19680.00
2019-05-06T12:09:45.009Z,18688.00
2019-05-06T12:10:45.036Z,18144.00
2019-05-06T12:11:45.068Z,18496.00
2019-05-06T12:12:45.091Z,22048.00
2019-05-06T12:13:45.118Z,25152.00
2019-05-06T12:14:45.152Z,30144.00